Time;durP1;ratioP1;P1;durP2;ratioP2;P2;SDS_P1;SDS_P2;PMS_P1;PMS_P2;Temp;Humidity;BMP_temperature;BMP_pressure;BME280_temperature;BME280_humidity;BME280_pressure;Samples;Min_cycle;Max_cycle;Signal;HPM_P1;HPM_P2
2023/03/14 00:01:17;;;;;;;26.27;15.32;;;12.60;93.40;;;;;;5032457;28;20045;-68
2023/03/14 00:03:43;;;;;;;25.17;14.60;;;12.60;93.70;;;;;;5032140;28;20076;-68
2023/03/14 00:06:10;;;;;;;20.25;13.57;;;12.60;94.10;;;;;;5032984;28;20064;-68
2023/03/14 00:08:36;;;;;;;22.30;14.57;;;12.60;94.20;;;;;;5032872;28;20106;-68
2023/03/14 00:11:27;;;;;;;28.77;15.73;;;12.60;94.40;;;;;;5032746;28;20026;-68
2023/03/14 00:13:53;;;;;;;28.08;15.13;;;12.60;94.30;;;;;;5032949;28;20026;-69
2023/03/14 00:16:19;;;;;;;20.38;14.50;;;12.60;94.40;;;;;;5032425;28;20174;-68
2023/03/14 00:18:45;;;;;;;19.48;14.50;;;12.50;94.90;;;;;;5032294;28;20528;-72
2023/03/14 00:21:12;;;;;;;25.52;14.40;;;12.50;95.10;;;;;;5032417;28;20124;-71
2023/03/14 00:23:39;;;;;;;21.42;13.23;;;12.50;95.40;;;;;;5032541;28;20049;-68
2023/03/14 00:26:19;;;;;;;22.00;12.55;;;12.50;95.40;;;;;;5032234;28;20104;-68
2023/03/14 00:28:45;;;;;;;17.67;12.05;;;12.50;95.50;;;;;;5032365;28;20025;-68
2023/03/14 00:31:13;;;;;;;23.17;11.52;;;12.50;95.70;;;;;;5032572;28;20033;-74
2023/03/14 00:33:39;;;;;;;19.55;12.57;;;12.50;95.70;;;;;;5032421;28;20049;-74
2023/03/14 00:36:12;;;;;;;25.30;13.00;;;12.50;95.90;;;;;;5014937;28;20489;-69
2023/03/14 00:38:39;;;;;;;15.32;11.60;;;12.50;96.10;;;;;;5032608;28;20030;-69
2023/03/14 00:41:10;;;;;;;18.48;11.40;;;12.50;96.10;;;;;;5032659;28;20038;-69
2023/03/14 00:43:36;;;;;;;22.48;10.75;;;12.40;96.10;;;;;;5032423;28;20026;-68
2023/03/14 00:46:03;;;;;;;22.55;10.80;;;12.50;96.30;;;;;;5035639;28;20517;-68
2023/03/14 00:48:28;;;;;;;17.30;10.05;;;12.40;96.40;;;;;;5037455;28;20060;-68
2023/03/14 00:50:54;;;;;;;18.92;10.40;;;12.50;96.40;;;;;;5037098;28;20110;-68
2023/03/14 00:53:20;;;;;;;14.48;9.73;;;12.40;96.50;;;;;;5036028;28;20035;-70
2023/03/14 00:55:46;;;;;;;16.05;9.90;;;12.40;96.70;;;;;;5035852;28;20033;-69
2023/03/14 00:58:14;;;;;;;15.98;10.48;;;12.40;96.80;;;;;;5035446;28;20021;-68
2023/03/14 01:00:40;;;;;;;14.85;9.10;;;12.50;97.20;;;;;;5035585;28;20045;-69
2023/03/14 01:03:07;;;;;;;19.00;8.68;;;12.40;97.30;;;;;;5035441;28;20021;-70
2023/03/14 01:05:33;;;;;;;15.48;9.00;;;12.50;97.50;;;;;;5035625;28;20036;-68
2023/03/14 01:07:59;;;;;;;15.82;8.90;;;12.40;97.50;;;;;;5035640;28;20100;-68
2023/03/14 01:10:24;;;;;;;13.98;7.22;;;12.50;97.50;;;;;;5035606;28;20025;-68
2023/03/14 01:12:50;;;;;;;12.95;7.72;;;12.40;97.70;;;;;;5035503;28;20513;-68
2023/03/14 01:15:16;;;;;;;14.02;7.60;;;12.40;97.70;;;;;;5035546;28;20377;-68
2023/03/14 01:17:42;;;;;;;11.65;6.95;;;12.40;97.70;;;;;;5035291;28;20021;-69
2023/03/14 01:20:10;;;;;;;13.57;6.60;;;12.40;97.60;;;;;;5035256;28;20053;-68
2023/03/14 01:22:39;;;;;;;13.75;6.40;;;12.40;97.80;;;;;;5035286;28;20029;-68
2023/03/14 01:25:06;;;;;;;12.32;8.05;;;12.40;97.50;;;;;;5035390;28;20021;-68
2023/03/14 01:27:32;;;;;;;14.88;7.63;;;12.40;97.50;;;;;;5017565;28;20056;-68
2023/03/14 01:29:58;;;;;;;20.25;6.35;;;12.40;97.60;;;;;;5035381;28;20018;-70
2023/03/14 01:32:25;;;;;;;14.30;5.60;;;12.40;97.60;;;;;;5034769;28;20018;-68
2023/03/14 01:34:51;;;;;;;11.73;6.43;;;12.40;97.50;;;;;;5035152;28;20024;-68
2023/03/14 01:37:16;;;;;;;14.75;7.45;;;12.40;97.60;;;;;;5035248;28;20474;-68
2023/03/14 01:39:42;;;;;;;13.85;6.18;;;12.40;97.80;;;;;;5035131;28;20030;-68
2023/03/14 01:42:08;;;;;;;8.85;5.20;;;12.30;97.80;;;;;;5034980;28;20030;-68
2023/03/14 01:44:58;;;;;;;11.65;5.43;;;12.40;97.80;;;;;;5035215;28;20468;-68
2023/03/14 01:47:24;;;;;;;13.15;5.68;;;12.40;98.20;;;;;;5005627;28;20052;-68
2023/03/14 01:49:56;;;;;;;13.45;5.35;;;12.30;97.90;;;;;;5034976;28;20029;-68
2023/03/14 01:52:28;;;;;;;9.48;4.82;;;12.40;98.00;;;;;;5034681;28;20026;-71
2023/03/14 01:54:58;;;;;;;12.07;5.28;;;12.40;98.00;;;;;;5034846;28;20384;-69
2023/03/14 01:57:52;;;;;;;9.60;5.18;;;12.30;97.90;;;;;;5034268;28;20025;-69
2023/03/14 02:00:21;;;;;;;8.70;5.47;;;12.30;97.80;;;;;;5029458;28;20038;-69
2023/03/14 02:02:50;;;;;;;14.30;5.68;;;12.30;97.70;;;;;;5032059;28;20025;-68
2023/03/14 02:05:19;;;;;;;11.88;5.47;;;12.40;97.70;;;;;;5033894;28;20033;-68
2023/03/14 02:07:50;;;;;;;12.18;6.00;;;12.30;97.70;;;;;;5034558;28;20021;-68
2023/03/14 02:10:19;;;;;;;10.50;6.43;;;12.30;97.80;;;;;;5034543;28;20053;-68
2023/03/14 02:12:47;;;;;;;11.93;7.18;;;12.30;97.80;;;;;;5034227;28;20068;-69
2023/03/14 02:15:13;;;;;;;16.75;6.97;;;12.30;97.90;;;;;;5034471;28;20055;-66
2023/03/14 02:17:42;;;;;;;13.07;6.68;;;12.30;97.90;;;;;;5034045;28;20021;-66
2023/03/14 02:20:33;;;;;;;15.15;7.07;;;12.30;98.00;;;;;;5033888;28;20022;-67
2023/03/14 02:22:59;;;;;;;12.30;7.60;;;12.30;98.00;;;;;;5021184;28;20033;-66
2023/03/14 02:25:33;;;;;;;17.33;8.93;;;12.30;98.40;;;;;;5034051;28;20021;-66
2023/03/14 02:28:00;;;;;;;14.52;7.45;;;12.30;98.20;;;;;;5033559;28;20026;-66
2023/03/14 02:30:28;;;;;;;15.80;7.85;;;12.20;98.30;;;;;;5034426;28;20041;-66
2023/03/14 02:33:23;;;;;;;20.48;8.13;;;12.30;98.50;;;;;;5034181;28;20358;-66
2023/03/14 02:36:01;;;;;;;19.65;7.80;;;12.30;98.60;;;;;;5032884;28;20041;-66
2023/03/14 02:38:42;;;;;;;13.50;8.10;;;12.30;98.70;;;;;;5033740;28;20079;-67
2023/03/14 02:41:08;;;;;;;15.63;8.32;;;12.30;98.60;;;;;;5033667;28;20048;-70
2023/03/14 02:43:33;;;;;;;13.82;8.68;;;12.20;98.70;;;;;;5033486;28;20501;-66
2023/03/14 02:46:01;;;;;;;17.98;8.02;;;12.30;98.70;;;;;;5033396;28;20126;-67
2023/03/14 02:48:29;;;;;;;13.57;8.50;;;12.30;98.80;;;;;;5033428;28;20469;-67
2023/03/14 02:50:57;;;;;;;16.63;8.43;;;12.20;98.80;;;;;;5033536;28;20032;-67
2023/03/14 02:53:34;;;;;;;18.25;8.05;;;12.30;99.00;;;;;;5033157;28;20143;-67
2023/03/14 02:56:00;;;;;;;13.43;7.45;;;12.30;99.00;;;;;;5033611;28;20040;-67
2023/03/14 02:58:27;;;;;;;12.10;7.40;;;12.30;99.10;;;;;;5033622;28;20107;-67
2023/03/14 03:00:52;;;;;;;15.35;7.93;;;12.30;99.20;;;;;;5033569;28;20084;-66
2023/03/14 03:03:18;;;;;;;14.40;7.32;;;12.30;99.30;;;;;;5033534;28;20034;-67
2023/03/14 03:05:51;;;;;;;13.88;8.07;;;12.30;99.50;;;;;;5033227;28;20053;-71
2023/03/14 03:08:19;;;;;;;12.23;7.88;;;12.20;99.50;;;;;;5032937;28;20091;-69
2023/03/14 03:10:44;;;;;;;11.40;7.00;;;12.30;99.70;;;;;;5039911;28;20032;-66
2023/03/14 03:13:10;;;;;;;14.80;8.23;;;12.30;99.70;;;;;;5033477;28;20097;-66
2023/03/14 03:15:36;;;;;;;20.00;10.23;;;12.30;99.70;;;;;;5033197;28;20025;-75
2023/03/14 03:18:02;;;;;;;13.73;7.45;;;12.20;99.60;;;;;;5033096;28;20070;-67
2023/03/14 03:20:27;;;;;;;14.00;7.53;;;12.30;99.60;;;;;;5032904;28;20073;-66
2023/03/14 03:22:53;;;;;;;16.90;7.43;;;12.20;99.40;;;;;;5033434;28;20029;-67
2023/03/14 03:25:19;;;;;;;14.93;7.80;;;12.20;99.30;;;;;;5033326;28;20022;-67
2023/03/14 03:27:44;;;;;;;12.00;7.40;;;12.20;99.30;;;;;;5033040;28;20125;-74
2023/03/14 03:30:11;;;;;;;12.52;6.95;;;12.20;99.40;;;;;;5033234;28;20021;-66
2023/03/14 03:32:36;;;;;;;12.05;7.25;;;12.20;99.50;;;;;;5033123;28;20029;-70
2023/03/14 03:35:04;;;;;;;15.68;7.75;;;12.20;99.40;;;;;;5032963;28;20021;-66
2023/03/14 03:37:33;;;;;;;13.13;8.00;;;12.20;99.50;;;;;;5032992;28;20076;-66
2023/03/14 03:40:00;;;;;;;20.08;7.80;;;12.20;99.40;;;;;;5033221;28;20156;-67
2023/03/14 03:42:27;;;;;;;13.00;6.47;;;12.20;99.30;;;;;;5032739;28;20041;-67
2023/03/14 03:44:52;;;;;;;13.60;6.38;;;12.20;99.20;;;;;;5033074;28;20026;-67
2023/03/14 03:47:18;;;;;;;10.68;5.85;;;12.20;99.00;;;;;;5032688;28;20063;-67
2023/03/14 03:49:43;;;;;;;19.17;6.70;;;12.20;99.00;;;;;;5033109;28;20045;-67
2023/03/14 03:52:09;;;;;;;14.18;7.00;;;12.20;98.90;;;;;;5032925;28;20033;-66
2023/03/14 03:54:35;;;;;;;14.35;6.30;;;12.20;98.80;;;;;;5032862;28;20029;-67
2023/03/14 03:57:01;;;;;;;15.63;6.68;;;12.20;98.70;;;;;;5032838;28;20053;-67
2023/03/14 03:59:27;;;;;;;12.15;5.82;;;12.20;98.70;;;;;;5032984;28;20034;-67
2023/03/14 04:01:52;;;;;;;12.13;6.50;;;12.20;98.70;;;;;;5032873;28;20116;-66
2023/03/14 04:04:18;;;;;;;15.63;6.55;;;12.20;98.70;;;;;;5032773;28;20026;-67
2023/03/14 04:06:44;;;;;;;11.88;7.22;;;12.20;98.70;;;;;;5032759;28;20385;-67
2023/03/14 04:09:11;;;;;;;12.35;6.60;;;12.20;98.80;;;;;;5032781;28;20101;-67
2023/03/14 04:11:37;;;;;;;14.32;7.10;;;12.20;98.80;;;;;;5032667;28;20029;-67
2023/03/14 04:14:03;;;;;;;12.32;6.10;;;12.20;98.80;;;;;;5032475;28;20032;-67
2023/03/14 04:16:31;;;;;;;14.32;6.10;;;12.20;98.90;;;;;;5032377;28;20033;-67
2023/03/14 04:18:57;;;;;;;11.63;5.10;;;12.20;99.00;;;;;;5032738;28;20024;-67
2023/03/14 04:21:22;;;;;;;9.60;3.90;;;12.20;98.90;;;;;;5036510;28;20037;-67
2023/03/14 04:23:48;;;;;;;8.82;4.20;;;12.30;98.90;;;;;;5036584;28;20041;-67
2023/03/14 04:26:14;;;;;;;13.55;3.90;;;12.30;98.90;;;;;;5036506;28;20385;-67
2023/03/14 04:28:40;;;;;;;9.70;3.45;;;12.30;98.80;;;;;;5036333;28;20588;-69
2023/03/14 04:31:18;;;;;;;8.88;3.42;;;12.30;98.70;;;;;;5036429;28;20470;-70
2023/03/14 04:33:44;;;;;;;13.02;3.03;;;12.30;98.60;;;;;;5036328;28;20025;-69
2023/03/14 04:36:10;;;;;;;16.48;3.80;;;12.30;98.60;;;;;;5036281;28;20128;-67
2023/03/14 04:38:36;;;;;;;7.88;3.20;;;12.40;98.60;;;;;;5036380;28;20100;-67
2023/03/14 04:41:02;;;;;;;10.93;3.17;;;12.40;98.70;;;;;;5036381;28;20030;-74
2023/03/14 04:43:28;;;;;;;9.43;3.05;;;12.40;98.60;;;;;;5036257;28;20440;-73
2023/03/14 04:45:54;;;;;;;14.73;3.20;;;12.40;98.60;;;;;;5035998;28;20136;-67
2023/03/14 04:48:21;;;;;;;14.55;3.45;;;12.50;98.50;;;;;;5036084;28;20029;-67
2023/03/14 04:50:47;;;;;;;19.70;4.45;;;12.60;98.40;;;;;;5035783;28;20053;-67
2023/03/14 04:53:14;;;;;;;14.82;4.68;;;12.60;98.30;;;;;;5036149;28;20037;-67
2023/03/14 04:55:39;;;;;;;17.83;5.45;;;12.60;98.10;;;;;;5035961;28;20022;-72
2023/03/14 04:58:05;;;;;;;14.27;5.07;;;12.60;98.00;;;;;;5036014;28;20036;-73
2023/03/14 05:00:31;;;;;;;17.40;5.22;;;12.50;97.80;;;;;;5035783;28;20044;-68
2023/03/14 05:02:57;;;;;;;12.23;4.78;;;12.70;97.80;;;;;;5035606;28;20031;-66
2023/03/14 05:05:23;;;;;;;11.82;3.70;;;12.70;97.80;;;;;;5035829;28;20025;-72
2023/03/14 05:07:49;;;;;;;15.20;2.70;;;12.70;97.80;;;;;;5035885;28;20025;-69
2023/03/14 05:10:15;;;;;;;7.63;2.40;;;12.70;98.00;;;;;;5035716;28;20457;-79
2023/03/14 05:12:41;;;;;;;11.68;2.08;;;12.80;97.80;;;;;;5035726;28;20437;-76
2023/03/14 05:15:07;;;;;;;13.18;2.47;;;12.80;97.60;;;;;;5035371;28;20034;-76
2023/03/14 05:17:33;;;;;;;12.90;2.47;;;12.80;97.50;;;;;;5035511;28;20021;-73
2023/03/14 05:19:59;;;;;;;9.13;2.55;;;12.90;97.50;;;;;;5035527;28;20101;-67
2023/03/14 05:22:25;;;;;;;13.48;2.58;;;12.90;97.70;;;;;;5035082;28;20037;-67
2023/03/14 05:24:50;;;;;;;11.40;2.80;;;12.90;97.70;;;;;;5035306;28;20029;-67
2023/03/14 05:27:16;;;;;;;13.50;2.45;;;12.90;97.70;;;;;;5035846;28;20116;-66
2023/03/14 05:29:42;;;;;;;12.20;2.88;;;12.90;97.70;;;;;;5017743;28;20474;-66
2023/03/14 05:32:07;;;;;;;14.38;2.90;;;12.90;97.70;;;;;;5034278;28;20097;-72
2023/03/14 05:34:33;;;;;;;12.35;2.90;;;12.90;97.80;;;;;;5036650;28;20458;-66
2023/03/14 05:36:59;;;;;;;10.23;2.92;;;12.90;98.00;;;;;;5035902;28;20493;-66
2023/03/14 05:39:24;;;;;;;12.60;2.17;;;12.90;98.10;;;;;;5034993;28;20131;-70
2023/03/14 05:41:50;;;;;;;11.65;2.38;;;12.90;98.20;;;;;;5035021;28;20038;-70
2023/03/14 05:44:16;;;;;;;10.77;2.55;;;12.90;98.30;;;;;;5034655;28;20385;-67
2023/03/14 05:46:42;;;;;;;13.73;2.47;;;12.80;98.40;;;;;;5034757;28;20056;-68
2023/03/14 05:49:08;;;;;;;10.55;2.60;;;12.80;98.50;;;;;;5034853;28;20025;-69
2023/03/14 05:51:34;;;;;;;13.65;3.38;;;12.80;98.60;;;;;;5034753;28;20120;-68
2023/03/14 05:53:59;;;;;;;10.93;2.65;;;12.70;98.70;;;;;;5034535;28;20481;-67
2023/03/14 05:56:25;;;;;;;12.35;2.97;;;12.70;98.70;;;;;;5034920;28;20026;-69
2023/03/14 05:58:50;;;;;;;11.73;3.17;;;12.70;98.90;;;;;;5034724;28;20080;-67
2023/03/14 06:01:16;;;;;;;12.25;2.95;;;12.70;99.10;;;;;;5034833;28;20112;-66
2023/03/14 06:03:42;;;;;;;15.65;4.15;;;12.70;99.20;;;;;;5034800;28;20052;-66
2023/03/14 06:06:08;;;;;;;10.60;2.85;;;12.60;99.30;;;;;;5034447;28;20025;-66
2023/03/14 06:08:34;;;;;;;13.32;3.28;;;12.60;99.30;;;;;;5034736;28;20071;-72
2023/03/14 06:11:02;;;;;;;13.25;2.47;;;12.60;99.20;;;;;;5034322;28;20075;-66
2023/03/14 06:13:27;;;;;;;13.35;2.80;;;12.60;99.10;;;;;;5034048;28;20381;-66
2023/03/14 06:15:53;;;;;;;13.27;2.50;;;12.60;98.90;;;;;;5034318;28;20025;-66
2023/03/14 06:18:19;;;;;;;12.23;3.25;;;12.70;99.00;;;;;;5034255;28;20029;-68
2023/03/14 06:20:45;;;;;;;8.13;2.40;;;12.70;98.90;;;;;;5034152;28;20049;-66
2023/03/14 06:23:11;;;;;;;14.98;3.05;;;12.60;98.90;;;;;;5034275;28;20025;-66
2023/03/14 06:25:37;;;;;;;12.27;3.03;;;12.70;99.00;;;;;;5034069;28;20483;-66
2023/03/14 06:28:03;;;;;;;14.48;3.17;;;12.60;99.10;;;;;;5034007;28;20029;-68
2023/03/14 06:30:28;;;;;;;15.90;3.17;;;12.60;99.20;;;;;;5034049;28;20032;-66
2023/03/14 06:32:55;;;;;;;8.48;2.55;;;12.60;99.20;;;;;;5033824;28;20027;-66
2023/03/14 06:35:21;;;;;;;12.98;2.55;;;12.60;99.30;;;;;;5033880;28;20030;-66
2023/03/14 06:37:47;;;;;;;11.15;2.65;;;12.60;99.30;;;;;;5034056;28;20036;-66
2023/03/14 06:40:17;;;;;;;10.10;2.47;;;12.60;99.30;;;;;;5034015;28;20037;-68
2023/03/14 06:42:44;;;;;;;9.30;2.30;;;12.60;99.20;;;;;;5033693;28;20068;-66
2023/03/14 06:45:10;;;;;;;10.68;3.10;;;12.60;99.20;;;;;;5033985;28;20026;-68
2023/03/14 06:47:37;;;;;;;16.45;3.05;;;12.70;99.10;;;;;;5033410;28;20091;-66
2023/03/14 06:50:04;;;;;;;9.68;2.78;;;12.70;99.00;;;;;;5033576;28;20049;-66
2023/03/14 06:52:30;;;;;;;9.07;2.10;;;12.70;98.70;;;;;;5033756;28;20021;-65
2023/03/14 06:54:56;;;;;;;12.98;3.28;;;12.70;98.50;;;;;;5033528;28;20039;-66
2023/03/14 06:57:21;;;;;;;13.20;4.57;;;12.80;98.50;;;;;;5033112;28;20084;-67
2023/03/14 06:59:47;;;;;;;12.15;4.07;;;12.80;98.30;;;;;;5033184;28;20478;-66
2023/03/14 07:02:13;;;;;;;11.05;5.20;;;12.80;98.30;;;;;;5015220;28;20113;-66
2023/03/14 07:04:39;;;;;;;14.85;4.28;;;12.80;98.40;;;;;;5033230;28;20029;-66
2023/03/14 07:07:05;;;;;;;11.13;3.50;;;12.80;98.60;;;;;;5033059;28;20099;-67
2023/03/14 07:09:31;;;;;;;13.82;3.28;;;12.70;98.70;;;;;;5033203;28;20112;-67
2023/03/14 07:11:57;;;;;;;12.65;3.08;;;12.70;98.90;;;;;;5032883;28;20485;-65
2023/03/14 07:14:23;;;;;;;12.02;2.70;;;12.70;98.70;;;;;;5033509;28;20033;-66
2023/03/14 07:16:48;;;;;;;10.52;3.08;;;12.70;98.60;;;;;;5033184;28;20512;-67
2023/03/14 07:19:14;;;;;;;10.02;2.97;;;12.70;98.70;;;;;;5033071;28;20033;-70
2023/03/14 07:21:40;;;;;;;10.60;2.40;;;12.70;98.50;;;;;;5032997;28;20037;-67
2023/03/14 07:24:06;;;;;;;12.90;3.13;;;12.70;98.10;;;;;;5032740;28;20026;-66
2023/03/14 07:26:31;;;;;;;8.73;2.10;;;12.70;98.00;;;;;;5032852;28;20037;-67
2023/03/14 07:28:57;;;;;;;10.45;2.17;;;12.70;98.20;;;;;;5032889;28;20025;-68
2023/03/14 07:31:23;;;;;;;9.88;2.17;;;12.70;98.00;;;;;;5015350;28;20057;-67
2023/03/14 07:33:48;;;;;;;11.40;3.00;;;12.70;98.00;;;;;;5033105;28;20025;-67
2023/03/14 07:36:14;;;;;;;9.57;2.50;;;12.80;98.10;;;;;;5033042;28;21211;-67
2023/03/14 07:38:40;;;;;;;13.30;2.33;;;12.70;97.90;;;;;;5033050;28;20025;-65
2023/03/14 07:41:06;;;;;;;11.75;2.63;;;12.80;97.90;;;;;;5032886;28;20042;-66
2023/03/14 07:43:32;;;;;;;12.05;2.83;;;12.80;97.80;;;;;;5032961;28;20040;-67
2023/03/14 07:45:58;;;;;;;9.82;2.45;;;12.80;97.60;;;;;;5032700;28;20041;-68
2023/03/14 07:48:24;;;;;;;11.40;2.30;;;12.80;97.60;;;;;;5032801;28;20037;-67
2023/03/14 07:50:54;;;;;;;9.30;3.08;;;12.80;97.70;;;;;;5032660;28;20428;-67
2023/03/14 07:53:21;;;;;;;8.07;2.38;;;12.80;97.90;;;;;;5032592;28;20117;-67
2023/03/14 07:55:47;;;;;;;11.40;3.10;;;12.80;97.80;;;;;;5032068;28;20443;-68
2023/03/14 07:58:13;;;;;;;9.02;2.47;;;12.80;97.80;;;;;;5033483;28;20075;-67
2023/03/14 08:00:39;;;;;;;13.07;2.50;;;12.80;97.80;;;;;;5035498;28;20068;-66
2023/03/14 08:03:05;;;;;;;6.25;2.40;;;12.80;97.70;;;;;;5032340;28;20128;-66
2023/03/14 08:05:30;;;;;;;9.18;2.45;;;12.80;97.70;;;;;;5032455;28;20543;-66
2023/03/14 08:07:56;;;;;;;9.07;2.95;;;12.80;97.70;;;;;;5032645;28;20029;-66
2023/03/14 08:10:22;;;;;;;9.68;2.80;;;12.80;97.80;;;;;;5032586;28;20478;-67
2023/03/14 08:12:54;;;;;;;11.85;2.78;;;12.80;98.00;;;;;;5030046;28;20073;-67
2023/03/14 08:15:20;;;;;;;8.15;2.60;;;12.80;98.00;;;;;;5029748;28;20500;-67
2023/03/14 08:17:50;;;;;;;6.25;2.58;;;12.80;98.30;;;;;;5031248;28;20029;-67
2023/03/14 08:20:16;;;;;;;8.65;3.13;;;12.80;98.40;;;;;;5032385;28;20421;-67
2023/03/14 08:22:42;;;;;;;10.65;3.00;;;12.70;98.50;;;;;;5032470;28;20061;-67
2023/03/14 08:25:08;;;;;;;7.53;2.85;;;12.70;98.60;;;;;;5032717;28;20466;-66
2023/03/14 08:27:34;;;;;;;8.77;2.97;;;12.70;98.70;;;;;;5032169;28;20033;-67
2023/03/14 08:29:59;;;;;;;8.82;3.10;;;12.70;98.80;;;;;;5032281;28;20108;-66
2023/03/14 08:32:25;;;;;;;16.65;4.18;;;12.70;98.90;;;;;;5032053;28;20025;-66
2023/03/14 08:34:51;;;;;;;9.23;3.10;;;12.70;98.90;;;;;;5032419;28;20029;-69
2023/03/14 08:37:16;;;;;;;8.35;2.90;;;12.70;98.90;;;;;;5031911;28;20025;-69
2023/03/14 08:39:42;;;;;;;9.55;2.97;;;12.70;98.70;;;;;;5032280;28;20026;-67
2023/03/14 08:42:07;;;;;;;9.98;2.78;;;12.70;98.60;;;;;;5032248;28;20034;-66
2023/03/14 08:44:33;;;;;;;13.70;3.47;;;12.80;99.90;;;;;;5032468;28;20033;-66
2023/03/14 08:46:59;;;;;;;10.63;3.03;;;12.80;99.90;;;;;;5031804;28;20077;-66
2023/03/14 08:49:24;;;;;;;8.77;3.03;;;12.80;99.90;;;;;;5031870;28;20436;-66
2023/03/14 08:51:50;;;;;;;11.13;3.33;;;12.80;99.90;;;;;;5031820;28;20036;-66
2023/03/14 08:54:16;;;;;;;13.23;3.70;;;12.80;99.90;;;;;;5032068;28;20078;-66
2023/03/14 08:56:41;;;;;;;9.57;2.92;;;12.80;99.90;;;;;;5031919;28;20068;-66
2023/03/14 08:59:08;;;;;;;12.10;3.15;;;12.80;99.90;;;;;;5031166;28;20036;-65
2023/03/14 09:01:33;;;;;;;8.15;3.00;;;12.80;99.90;;;;;;5032170;28;20390;-66
2023/03/14 09:03:59;;;;;;;12.55;3.05;;;12.80;99.90;;;;;;5031958;28;20030;-67
2023/03/14 09:06:25;;;;;;;9.43;2.92;;;12.80;99.90;;;;;;5032864;28;20030;-67
2023/03/14 09:08:50;;;;;;;7.40;2.67;;;12.80;99.90;;;;;;5035753;28;20444;-66
2023/03/14 09:11:17;;;;;;;8.73;3.00;;;12.80;99.90;;;;;;5035698;28;20516;-66
2023/03/14 09:13:43;;;;;;;12.73;3.28;;;12.80;99.90;;;;;;5035434;28;20025;-65
2023/03/14 09:16:09;;;;;;;7.57;3.45;;;12.80;99.90;;;;;;5035612;28;20095;-64
2023/03/14 09:18:35;;;;;;;13.43;3.97;;;12.80;99.90;;;;;;5035733;28;20025;-64
2023/03/14 09:21:01;;;;;;;9.63;5.25;;;12.80;99.90;;;;;;5035349;28;20045;-65
2023/03/14 09:23:27;;;;;;;11.70;4.50;;;12.90;99.90;;;;;;5035024;28;20424;-65
2023/03/14 09:25:57;;;;;;;12.48;4.43;;;12.90;99.90;;;;;;5035113;28;20029;-64
2023/03/14 09:28:24;;;;;;;8.88;3.85;;;12.90;99.90;;;;;;5034990;28;20036;-64
2023/03/14 09:30:50;;;;;;;9.20;3.35;;;12.90;99.90;;;;;;5035085;28;20031;-64
2023/03/14 09:33:16;;;;;;;10.18;2.97;;;13.00;99.90;;;;;;5034986;28;20428;-64
2023/03/14 09:35:41;;;;;;;12.48;3.10;;;13.00;99.90;;;;;;5035172;28;20026;-64
2023/03/14 09:38:07;;;;;;;9.15;3.33;;;13.00;99.90;;;;;;5035031;28;20090;-64
2023/03/14 09:40:37;;;;;;;11.75;3.90;;;13.00;99.90;;;;;;5035065;28;20109;-64
2023/03/14 09:43:04;;;;;;;9.63;3.97;;;13.00;99.90;;;;;;5034724;28;20025;-64
2023/03/14 09:45:33;;;;;;;9.75;3.42;;;13.00;99.90;;;;;;5034626;28;20036;-64
2023/03/14 09:47:59;;;;;;;10.82;3.10;;;13.10;99.90;;;;;;5034812;28;20026;-65
2023/03/14 09:50:30;;;;;;;12.35;4.70;;;13.00;99.90;;;;;;5034778;28;20108;-63
2023/03/14 09:53:03;;;;;;;10.85;7.10;;;13.00;99.90;;;;;;5034830;28;20485;-67
2023/03/14 09:55:28;;;;;;;;;;;13.10;99.90;;;;;;5035219;28;20017;-65
2023/03/14 09:57:59;;;;;;;16.65;7.53;;;13.00;99.90;;;;;;5034938;28;20004;-64
2023/03/14 10:00:31;;;;;;;11.98;5.18;;;13.10;99.90;;;;;;5016557;28;20037;-64
2023/03/14 10:03:12;;;;;;;14.68;5.30;;;13.10;99.90;;;;;;5034524;28;20034;-65
2023/03/14 10:05:39;;;;;;;9.65;5.20;;;13.10;99.90;;;;;;5034749;28;20085;-65
2023/03/14 10:08:05;;;;;;;13.70;6.50;;;13.00;99.90;;;;;;5034843;28;20029;-65
2023/03/14 10:10:31;;;;;;;16.25;5.93;;;13.00;99.90;;;;;;5034156;28;20504;-66
2023/03/14 10:13:11;;;;;;;14.50;6.10;;;13.10;99.90;;;;;;5034067;28;20026;-68
2023/03/14 10:15:38;;;;;;;18.77;8.57;;;13.10;99.90;;;;;;5016220;28;20034;-66
2023/03/14 10:18:13;;;;;;;18.92;9.80;;;13.00;99.90;;;;;;5033423;28;20092;-65
2023/03/14 10:20:42;;;;;;;14.63;6.00;;;13.00;99.90;;;;;;5032610;28;20021;-65
2023/03/14 10:23:14;;;;;;;19.00;5.50;;;13.00;99.90;;;;;;5033831;28;20032;-65
2023/03/14 10:25:45;;;;;;;13.45;4.00;;;13.00;99.90;;;;;;5033298;28;20099;-65
2023/03/14 10:28:30;;;;;;;12.32;4.28;;;13.00;99.90;;;;;;5034116;28;20033;-66
2023/03/14 10:30:57;;;;;;;12.65;4.63;;;13.00;99.90;;;;;;5034533;28;20027;-66
2023/03/14 10:33:25;;;;;;;11.45;4.20;;;13.00;99.90;;;;;;5033899;28;20112;-66
2023/03/14 10:35:55;;;;;;;7.72;4.28;;;12.90;99.90;;;;;;5033799;28;20075;-66
2023/03/14 10:38:24;;;;;;;9.48;4.38;;;13.00;99.90;;;;;;5033792;28;20057;-65
2023/03/14 10:40:52;;;;;;;11.23;3.88;;;12.90;99.90;;;;;;5033790;28;20084;-65
2023/03/14 10:43:35;;;;;;;10.93;4.07;;;12.90;99.90;;;;;;5033652;28;20420;-66
2023/03/14 10:46:15;;;;;;;14.73;6.10;;;12.90;99.90;;;;;;5033496;28;20133;-64
2023/03/14 10:48:41;;;;;;;14.88;5.78;;;12.90;99.90;;;;;;5033761;28;20484;-64
2023/03/14 10:51:10;;;;;;;12.93;4.88;;;12.90;99.90;;;;;;5033581;28;20109;-65
2023/03/14 10:53:44;;;;;;;13.27;4.45;;;12.90;99.90;;;;;;5033437;28;20537;-65
2023/03/14 10:56:18;;;;;;;14.35;5.30;;;12.90;99.90;;;;;;5033412;28;20445;-65
2023/03/14 10:58:46;;;;;;;15.13;6.53;;;12.90;99.90;;;;;;5033080;28;20029;-65
2023/03/14 11:01:26;;;;;;;14.60;5.70;;;12.90;99.90;;;;;;5033120;28;20077;-64
2023/03/14 11:04:10;;;;;;;15.13;5.55;;;12.90;99.90;;;;;;5033706;28;20378;-65
2023/03/14 11:06:42;;;;;;;11.93;4.97;;;12.90;99.90;;;;;;5033562;28;20025;-65
2023/03/14 11:09:27;;;;;;;14.30;4.65;;;12.90;99.90;;;;;;5033569;28;20097;-64
2023/03/14 11:11:55;;;;;;;12.77;3.50;;;12.80;99.90;;;;;;5033600;28;20053;-64
2023/03/14 11:14:33;;;;;;;8.38;3.40;;;12.80;99.90;;;;;;5033534;28;20421;-65
2023/03/14 11:17:27;;;;;;;9.70;3.63;;;12.80;99.90;;;;;;5033491;28;20029;-64
2023/03/14 11:20:21;;;;;;;8.82;3.45;;;12.80;99.90;;;;;;5033207;28;20041;-65
2023/03/14 11:22:56;;;;;;;8.38;2.60;;;12.80;99.90;;;;;;5033105;28;20500;-65
2023/03/14 11:25:44;;;;;;;9.88;2.65;;;12.80;99.90;;;;;;5033273;28;20048;-64
2023/03/14 11:28:27;;;;;;;14.70;3.95;;;12.80;99.90;;;;;;5032699;28;20049;-64
2023/03/14 11:30:54;;;;;;;;;;;12.70;99.90;;;;;;5033273;28;20021;-65
2023/03/14 11:33:31;;;;;;;12.50;3.42;;;12.70;99.90;;;;;;5033008;28;19905;-65
2023/03/14 11:36:07;;;;;;;13.18;2.75;;;12.70;99.90;;;;;;5015182;28;20033;-65
2023/03/14 11:38:42;;;;;;;11.50;3.15;;;12.70;99.90;;;;;;5032755;28;20033;-64
2023/03/14 11:41:33;;;;;;;7.65;2.60;;;12.70;99.90;;;;;;5032638;28;20037;-64
2023/03/14 11:44:05;;;;;;;10.35;2.22;;;12.70;99.90;;;;;;5033024;28;20462;-64
2023/03/14 11:46:42;;;;;;;11.67;2.57;;;12.70;99.90;;;;;;5032888;28;20513;-65
2023/03/14 11:49:38;;;;;;;8.02;3.00;;;12.70;99.90;;;;;;5032871;28;20026;-64
2023/03/14 11:52:16;;;;;;;9.25;3.00;;;12.70;99.90;;;;;;5032406;28;20485;-63
2023/03/14 11:54:49;;;;;;;9.20;3.22;;;12.70;99.90;;;;;;5032531;28;20037;-64
2023/03/14 11:57:17;;;;;;;6.88;2.55;;;12.70;99.90;;;;;;5032505;28;20030;-65
2023/03/14 12:00:16;;;;;;;10.60;3.25;;;12.70;99.90;;;;;;5032314;28;20029;-64
2023/03/14 12:02:45;;;;;;;10.98;2.90;;;12.70;99.90;;;;;;5032767;28;20037;-64
2023/03/14 12:05:23;;;;;;;6.85;2.83;;;12.60;99.90;;;;;;5032765;28;20148;-65
2023/03/14 12:08:18;;;;;;;11.25;3.25;;;12.60;99.90;;;;;;5032691;28;20023;-69
2023/03/14 12:10:53;;;;;;;12.55;3.45;;;12.60;99.90;;;;;;5031860;28;20033;-66
2023/03/14 12:13:19;;;;;;;8.95;3.38;;;12.60;99.90;;;;;;5032445;28;20021;-66
2023/03/14 12:15:55;;;;;;;9.52;3.03;;;12.60;99.90;;;;;;5032556;28;20083;-66
2023/03/14 12:18:34;;;;;;;7.55;3.28;;;12.60;99.90;;;;;;5032580;28;20049;-67
2023/03/14 12:21:05;;;;;;;11.55;3.67;;;12.50;99.90;;;;;;5032548;28;20183;-67
2023/03/14 12:23:56;;;;;;;9.93;2.75;;;12.60;99.90;;;;;;5032283;28;20018;-66
2023/03/14 12:26:25;;;;;;;7.90;2.92;;;12.60;99.90;;;;;;5020495;28;20030;-67
2023/03/14 12:28:52;;;;;;;10.40;4.03;;;12.60;99.90;;;;;;5032441;28;20385;-66
2023/03/14 12:31:32;;;;;;;6.60;3.15;;;12.60;99.90;;;;;;5032434;28;20026;-66
2023/03/14 12:34:20;;;;;;;11.98;3.28;;;12.60;99.90;;;;;;5031557;28;20034;-67
2023/03/14 12:36:49;;;;;;;12.02;2.92;;;12.60;99.90;;;;;;5031476;28;20031;-67
2023/03/14 12:39:36;;;;;;;10.13;3.10;;;12.50;99.90;;;;;;5031783;28;20025;-66
2023/03/14 12:42:07;;;;;;;9.85;3.10;;;12.60;99.90;;;;;;5035959;28;20037;-66
2023/03/14 12:44:32;;;;;;;10.38;3.22;;;12.60;99.90;;;;;;5036153;28;20026;-67
2023/03/14 12:47:17;;;;;;;10.23;3.65;;;12.60;99.90;;;;;;5035489;28;20060;-67